Maple, North Dakota
Current Conditions -  °F | °C
As of 9:35 PM on Friday 24 Oct 2014 (Local Time) from KGWR Reporting Station
Broken Clouds Broken Clouds  
Wind Chill: 57°   Ceiling: 12000
Heat Index: 57°   Visibility: 10mi
Dew Point: 36°   Wind: 9mph
Humidity: 44%   Direction: 270°W
Pressure: 29.97"   Gusts: NA
Location:  46.1988°N, 98.3822°W
Report Text: KGWR 250235Z AUTO 27008KT 10SM BKN120 14/02 A2997 RMK A01 P000
Loading
Personal Weather Stations






























Interactive Weather Map
Tropical Storm Tracking
New forecast layout! Learn more

10-Day Weather Forecast

Advertisements
Track Severe Weather on mobile